sensor_id;sensor_type;location;lat;lon;timestamp;temperature;humidity
25568;DHT22;13455;51.480;7.594;2023-05-15T00:01:20;14.20;99.90
25568;DHT22;13455;51.480;7.594;2023-05-15T00:03:46;13.40;99.90
25568;DHT22;13455;51.480;7.594;2023-05-15T00:06:12;14.20;99.90
25568;DHT22;13455;51.480;7.594;2023-05-15T00:08:37;14.20;99.90
25568;DHT22;13455;51.480;7.594;2023-05-15T00:11:03;14.20;99.90
25568;DHT22;13455;51.480;7.594;2023-05-15T00:13:29;14.20;99.90
25568;DHT22;13455;51.480;7.594;2023-05-15T00:15:54;14.20;99.90
25568;DHT22;13455;51.480;7.594;2023-05-15T00:18:20;13.00;99.90
25568;DHT22;13455;51.480;7.594;2023-05-15T00:20:46;14.10;99.90
25568;DHT22;13455;51.480;7.594;2023-05-15T00:23:11;14.10;99.90
25568;DHT22;13455;51.480;7.594;2023-05-15T00:25:37;14.00;99.90
25568;DHT22;13455;51.480;7.594;2023-05-15T00:28:02;14.00;99.90
25568;DHT22;13455;51.480;7.594;2023-05-15T00:30:28;14.00;99.90
25568;DHT22;13455;51.480;7.594;2023-05-15T00:32:54;14.00;99.90
25568;DHT22;13455;51.480;7.594;2023-05-15T00:35:19;14.00;99.90
25568;DHT22;13455;51.480;7.594;2023-05-15T00:37:45;14.00;99.90
25568;DHT22;13455;51.480;7.594;2023-05-15T00:40:19;13.90;99.90
25568;DHT22;13455;51.480;7.594;2023-05-15T00:42:47;13.80;99.90
25568;DHT22;13455;51.480;7.594;2023-05-15T00:45:13;13.80;99.90
25568;DHT22;13455;51.480;7.594;2023-05-15T00:47:40;13.80;99.90
25568;DHT22;13455;51.480;7.594;2023-05-15T00:50:07;13.80;99.90
25568;DHT22;13455;51.480;7.594;2023-05-15T00:52:34;13.70;99.90
25568;DHT22;13455;51.480;7.594;2023-05-15T00:55:00;13.60;99.90
25568;DHT22;13455;51.480;7.594;2023-05-15T00:57:28;12.00;99.90
25568;DHT22;13455;51.480;7.594;2023-05-15T00:59:56;13.60;99.90
25568;DHT22;13455;51.480;7.594;2023-05-15T01:02:22;13.70;99.90
25568;DHT22;13455;51.480;7.594;2023-05-15T01:04:48;13.60;99.90
25568;DHT22;13455;51.480;7.594;2023-05-15T01:07:14;13.30;99.90
25568;DHT22;13455;51.480;7.594;2023-05-15T01:09:41;13.30;99.90
25568;DHT22;13455;51.480;7.594;2023-05-15T01:12:11;13.20;99.90
25568;DHT22;13455;51.480;7.594;2023-05-15T01:14:38;13.30;99.90
25568;DHT22;13455;51.480;7.594;2023-05-15T01:17:04;13.20;99.90
25568;DHT22;13455;51.480;7.594;2023-05-15T01:24:56;13.00;99.90
25568;DHT22;13455;51.480;7.594;2023-05-15T01:27:34;13.00;99.90
25568;DHT22;13455;51.480;7.594;2023-05-15T01:30:29;13.00;99.90
25568;DHT22;13455;51.480;7.594;2023-05-15T01:33:17;12.90;99.90
25568;DHT22;13455;51.480;7.594;2023-05-15T01:35:58;12.90;99.90
25568;DHT22;13455;51.480;7.594;2023-05-15T01:38:38;12.90;99.90
25568;DHT22;13455;51.480;7.594;2023-05-15T01:43:32;12.90;99.90
25568;DHT22;13455;51.480;7.594;2023-05-15T01:45:59;12.90;99.90
25568;DHT22;13455;51.480;7.594;2023-05-15T01:48:26;12.90;99.90
25568;DHT22;13455;51.480;7.594;2023-05-15T01:50:55;12.90;99.90
25568;DHT22;13455;51.480;7.594;2023-05-15T01:53:22;12.80;99.90
25568;DHT22;13455;51.480;7.594;2023-05-15T01:55:49;12.80;99.90
25568;DHT22;13455;51.480;7.594;2023-05-15T01:58:16;12.50;99.90
25568;DHT22;13455;51.480;7.594;2023-05-15T02:00:43;13.00;99.90
25568;DHT22;13455;51.480;7.594;2023-05-15T02:03:10;13.00;99.90
25568;DHT22;13455;51.480;7.594;2023-05-15T02:05:36;13.00;99.90
25568;DHT22;13455;51.480;7.594;2023-05-15T02:15:25;12.80;99.90
25568;DHT22;13455;51.480;7.594;2023-05-15T02:17:51;12.70;99.90
25568;DHT22;13455;51.480;7.594;2023-05-15T02:22:43;12.50;99.90
25568;DHT22;13455;51.480;7.594;2023-05-15T02:25:09;12.50;99.90
25568;DHT22;13455;51.480;7.594;2023-05-15T02:27:56;12.50;99.90
25568;DHT22;13455;51.480;7.594;2023-05-15T02:36:04;12.30;99.90
25568;DHT22;13455;51.480;7.594;2023-05-15T02:38:43;12.30;99.90
25568;DHT22;13455;51.480;7.594;2023-05-15T02:41:11;12.30;99.90
25568;DHT22;13455;51.480;7.594;2023-05-15T02:43:38;12.30;99.90
25568;DHT22;13455;51.480;7.594;2023-05-15T02:46:05;12.30;99.90
25568;DHT22;13455;51.480;7.594;2023-05-15T02:48:36;12.20;99.90
25568;DHT22;13455;51.480;7.594;2023-05-15T02:51:04;12.20;99.90
25568;DHT22;13455;51.480;7.594;2023-05-15T02:53:32;12.20;99.90
25568;DHT22;13455;51.480;7.594;2023-05-15T02:55:57;12.20;99.90
25568;DHT22;13455;51.480;7.594;2023-05-15T02:58:23;12.20;99.90
25568;DHT22;13455;51.480;7.594;2023-05-15T03:00:49;12.10;99.90
25568;DHT22;13455;51.480;7.594;2023-05-15T03:03:14;12.10;99.90
25568;DHT22;13455;51.480;7.594;2023-05-15T03:05:40;12.10;99.90
25568;DHT22;13455;51.480;7.594;2023-05-15T03:08:06;12.10;99.90
25568;DHT22;13455;51.480;7.594;2023-05-15T03:10:31;12.10;99.90
25568;DHT22;13455;51.480;7.594;2023-05-15T03:12:57;12.00;99.90
25568;DHT22;13455;51.480;7.594;2023-05-15T03:15:23;12.00;99.90
25568;DHT22;13455;51.480;7.594;2023-05-15T03:20:15;11.90;99.90
25568;DHT22;13455;51.480;7.594;2023-05-15T03:22:41;11.90;99.90
25568;DHT22;13455;51.480;7.594;2023-05-15T03:25:09;12.00;99.90
25568;DHT22;13455;51.480;7.594;2023-05-15T03:27:35;11.90;99.90
25568;DHT22;13455;51.480;7.594;2023-05-15T03:34:53;11.70;99.90
25568;DHT22;13455;51.480;7.594;2023-05-15T03:37:18;11.70;99.90
25568;DHT22;13455;51.480;7.594;2023-05-15T03:39:44;11.60;99.90
25568;DHT22;13455;51.480;7.594;2023-05-15T03:42:09;11.60;99.90
25568;DHT22;13455;51.480;7.594;2023-05-15T03:44:35;11.60;99.90
25568;DHT22;13455;51.480;7.594;2023-05-15T03:47:01;11.60;99.90
25568;DHT22;13455;51.480;7.594;2023-05-15T03:49:26;11.60;99.90
25568;DHT22;13455;51.480;7.594;2023-05-15T03:51:52;11.90;99.90
25568;DHT22;13455;51.480;7.594;2023-05-15T03:54:18;12.20;99.90
25568;DHT22;13455;51.480;7.594;2023-05-15T03:59:09;11.60;99.90
25568;DHT22;13455;51.480;7.594;2023-05-15T04:06:28;11.90;99.90
25568;DHT22;13455;51.480;7.594;2023-05-15T04:08:53;11.90;99.90
25568;DHT22;13455;51.480;7.594;2023-05-15T04:11:19;11.90;99.90
25568;DHT22;13455;51.480;7.594;2023-05-15T04:13:46;12.00;99.90
25568;DHT22;13455;51.480;7.594;2023-05-15T04:16:11;12.00;99.90
25568;DHT22;13455;51.480;7.594;2023-05-15T04:18:37;12.10;99.90
25568;DHT22;13455;51.480;7.594;2023-05-15T04:21:02;12.10;99.90
25568;DHT22;13455;51.480;7.594;2023-05-15T04:23:28;12.10;99.90
25568;DHT22;13455;51.480;7.594;2023-05-15T04:25:53;12.20;99.90
25568;DHT22;13455;51.480;7.594;2023-05-15T04:28:19;12.20;99.90
25568;DHT22;13455;51.480;7.594;2023-05-15T04:30:46;12.20;99.90
25568;DHT22;13455;51.480;7.594;2023-05-15T04:33:11;12.40;99.90
25568;DHT22;13455;51.480;7.594;2023-05-15T04:35:37;12.30;99.90
25568;DHT22;13455;51.480;7.594;2023-05-15T04:38:03;12.20;99.90
25568;DHT22;13455;51.480;7.594;2023-05-15T04:40:28;12.20;99.90
25568;DHT22;13455;51.480;7.594;2023-05-15T04:42:54;12.30;99.90
25568;DHT22;13455;51.480;7.594;2023-05-15T04:47:46;12.20;99.90
25568;DHT22;13455;51.480;7.594;2023-05-15T04:50:11;12.70;99.90
25568;DHT22;13455;51.480;7.594;2023-05-15T04:52:37;12.60;99.90
25568;DHT22;13455;51.480;7.594;2023-05-15T04:55:03;12.70;99.90
25568;DHT22;13455;51.480;7.594;2023-05-15T04:57:28;12.40;99.90
25568;DHT22;13455;51.480;7.594;2023-05-15T04:59:54;12.80;99.90
25568;DHT22;13455;51.480;7.594;2023-05-15T05:02:21;12.80;99.90
25568;DHT22;13455;51.480;7.594;2023-05-15T05:04:47;12.60;99.90
25568;DHT22;13455;51.480;7.594;2023-05-15T05:09:42;12.70;99.90
25568;DHT22;13455;51.480;7.594;2023-05-15T05:12:08;12.80;99.90
25568;DHT22;13455;51.480;7.594;2023-05-15T05:14:34;12.80;99.90
25568;DHT22;13455;51.480;7.594;2023-05-15T05:17:00;13.00;99.90
25568;DHT22;13455;51.480;7.594;2023-05-15T05:19:25;13.10;99.90
25568;DHT22;13455;51.480;7.594;2023-05-15T05:21:53;12.90;99.90
25568;DHT22;13455;51.480;7.594;2023-05-15T05:24:18;12.90;99.90
25568;DHT22;13455;51.480;7.594;2023-05-15T05:26:44;13.40;99.90
25568;DHT22;13455;51.480;7.594;2023-05-15T05:29:10;13.30;99.90
25568;DHT22;13455;51.480;7.594;2023-05-15T05:31:35;13.10;99.90
25568;DHT22;13455;51.480;7.594;2023-05-15T05:34:01;13.20;99.90
25568;DHT22;13455;51.480;7.594;2023-05-15T05:36:27;13.20;99.90
25568;DHT22;13455;51.480;7.594;2023-05-15T05:38:52;13.30;99.90
25568;DHT22;13455;51.480;7.594;2023-05-15T05:41:18;13.30;99.90
25568;DHT22;13455;51.480;7.594;2023-05-15T05:43:43;13.40;99.90
25568;DHT22;13455;51.480;7.594;2023-05-15T05:46:09;13.60;99.90
25568;DHT22;13455;51.480;7.594;2023-05-15T05:48:35;13.40;99.90
25568;DHT22;13455;51.480;7.594;2023-05-15T05:51:01;13.60;99.90
25568;DHT22;13455;51.480;7.594;2023-05-15T05:53:26;13.70;99.90
25568;DHT22;13455;51.480;7.594;2023-05-15T05:55:53;13.50;99.90
25568;DHT22;13455;51.480;7.594;2023-05-15T05:58:18;14.40;99.90
25568;DHT22;13455;51.480;7.594;2023-05-15T06:00:45;13.90;99.90
25568;DHT22;13455;51.480;7.594;2023-05-15T06:03:11;14.00;99.90
25568;DHT22;13455;51.480;7.594;2023-05-15T06:05:37;13.90;99.90
25568;DHT22;13455;51.480;7.594;2023-05-15T06:08:03;14.10;99.90
25568;DHT22;13455;51.480;7.594;2023-05-15T06:10:28;13.90;99.90
25568;DHT22;13455;51.480;7.594;2023-05-15T06:12:55;13.90;99.90
25568;DHT22;13455;51.480;7.594;2023-05-15T06:15:20;14.20;99.90
25568;DHT22;13455;51.480;7.594;2023-05-15T06:17:46;14.00;99.90
25568;DHT22;13455;51.480;7.594;2023-05-15T06:20:12;14.20;99.90
25568;DHT22;13455;51.480;7.594;2023-05-15T06:22:38;15.40;99.90
25568;DHT22;13455;51.480;7.594;2023-05-15T06:25:05;14.20;99.90
25568;DHT22;13455;51.480;7.594;2023-05-15T06:27:31;14.20;99.90
25568;DHT22;13455;51.480;7.594;2023-05-15T06:29:57;14.30;99.90
25568;DHT22;13455;51.480;7.594;2023-05-15T06:32:23;14.30;99.90
25568;DHT22;13455;51.480;7.594;2023-05-15T06:34:49;14.40;99.90
25568;DHT22;13455;51.480;7.594;2023-05-15T06:37:15;14.40;99.90
25568;DHT22;13455;51.480;7.594;2023-05-15T06:39:40;14.70;99.90
25568;DHT22;13455;51.480;7.594;2023-05-15T06:42:06;14.40;99.90
25568;DHT22;13455;51.480;7.594;2023-05-15T06:44:32;14.60;99.90
25568;DHT22;13455;51.480;7.594;2023-05-15T06:46:58;14.50;99.90
25568;DHT22;13455;51.480;7.594;2023-05-15T06:49:24;14.50;99.90
25568;DHT22;13455;51.480;7.594;2023-05-15T06:51:50;14.50;99.90
25568;DHT22;13455;51.480;7.594;2023-05-15T06:54:16;14.60;99.90
25568;DHT22;13455;51.480;7.594;2023-05-15T06:56:42;14.60;99.90
25568;DHT22;13455;51.480;7.594;2023-05-15T06:59:07;14.70;99.90
25568;DHT22;13455;51.480;7.594;2023-05-15T07:01:33;15.10;99.90
25568;DHT22;13455;51.480;7.594;2023-05-15T07:03:58;14.70;99.90
25568;DHT22;13455;51.480;7.594;2023-05-15T07:06:24;14.70;99.90
25568;DHT22;13455;51.480;7.594;2023-05-15T07:08:51;14.80;99.90
25568;DHT22;13455;51.480;7.594;2023-05-15T07:11:16;15.00;99.90
25568;DHT22;13455;51.480;7.594;2023-05-15T07:13:42;15.00;99.90
25568;DHT22;13455;51.480;7.594;2023-05-15T07:16:08;15.10;99.90
25568;DHT22;13455;51.480;7.594;2023-05-15T07:18:33;15.20;99.90
25568;DHT22;13455;51.480;7.594;2023-05-15T07:20:59;15.20;99.90
25568;DHT22;13455;51.480;7.594;2023-05-15T07:25:53;15.50;99.90
25568;DHT22;13455;51.480;7.594;2023-05-15T07:28:19;15.80;99.90
25568;DHT22;13455;51.480;7.594;2023-05-15T07:30:45;15.70;99.90
25568;DHT22;13455;51.480;7.594;2023-05-15T07:33:11;15.80;99.90
25568;DHT22;13455;51.480;7.594;2023-05-15T07:38:02;16.10;99.90
25568;DHT22;13455;51.480;7.594;2023-05-15T07:40:30;16.10;99.90
25568;DHT22;13455;51.480;7.594;2023-05-15T07:52:42;17.00;99.90
25568;DHT22;13455;51.480;7.594;2023-05-15T07:55:11;16.80;99.90
25568;DHT22;13455;51.480;7.594;2023-05-15T08:00:06;17.00;99.90
25568;DHT22;13455;51.480;7.594;2023-05-15T08:02:37;17.00;99.90
25568;DHT22;13455;51.480;7.594;2023-05-15T08:05:03;17.10;99.90
25568;DHT22;13455;51.480;7.594;2023-05-15T08:07:30;17.20;99.90
25568;DHT22;13455;51.480;7.594;2023-05-15T08:09:57;17.20;99.90
25568;DHT22;13455;51.480;7.594;2023-05-15T08:17:16;17.50;99.90
25568;DHT22;13455;51.480;7.594;2023-05-15T08:19:42;17.60;99.90
25568;DHT22;13455;51.480;7.594;2023-05-15T08:22:08;17.70;99.90
25568;DHT22;13455;51.480;7.594;2023-05-15T08:24:33;17.80;99.90
25568;DHT22;13455;51.480;7.594;2023-05-15T08:29:25;17.90;99.90
25568;DHT22;13455;51.480;7.594;2023-05-15T08:31:51;18.00;99.90
25568;DHT22;13455;51.480;7.594;2023-05-15T08:34:17;18.00;99.90
25568;DHT22;13455;51.480;7.594;2023-05-15T08:36:43;18.10;99.90
25568;DHT22;13455;51.480;7.594;2023-05-15T08:39:09;18.10;99.90
25568;DHT22;13455;51.480;7.594;2023-05-15T08:41:51;18.20;99.90
25568;DHT22;13455;51.480;7.594;2023-05-15T08:44:21;18.20;99.90
25568;DHT22;13455;51.480;7.594;2023-05-15T08:46:48;18.30;99.90
25568;DHT22;13455;51.480;7.594;2023-05-15T08:52:04;18.40;99.90
25568;DHT22;13455;51.480;7.594;2023-05-15T08:54:30;18.50;99.90
25568;DHT22;13455;51.480;7.594;2023-05-15T08:56:56;18.50;99.90
25568;DHT22;13455;51.480;7.594;2023-05-15T08:59:21;18.70;99.90
25568;DHT22;13455;51.480;7.594;2023-05-15T09:01:47;18.80;99.90
25568;DHT22;13455;51.480;7.594;2023-05-15T09:04:14;18.80;99.90
25568;DHT22;13455;51.480;7.594;2023-05-15T09:06:40;18.90;99.90
25568;DHT22;13455;51.480;7.594;2023-05-15T09:09:08;19.10;99.90
25568;DHT22;13455;51.480;7.594;2023-05-15T09:11:42;19.10;99.90
25568;DHT22;13455;51.480;7.594;2023-05-15T09:14:08;19.50;99.90
25568;DHT22;13455;51.480;7.594;2023-05-15T09:16:34;19.50;99.90
25568;DHT22;13455;51.480;7.594;2023-05-15T09:21:28;19.90;99.90
25568;DHT22;13455;51.480;7.594;2023-05-15T09:27:01;20.20;99.90
25568;DHT22;13455;51.480;7.594;2023-05-15T09:29:28;20.40;99.90
25568;DHT22;13455;51.480;7.594;2023-05-15T09:31:55;20.40;99.90
25568;DHT22;13455;51.480;7.594;2023-05-15T09:34:31;20.80;99.90
25568;DHT22;13455;51.480;7.594;2023-05-15T09:36:57;20.80;99.90
25568;DHT22;13455;51.480;7.594;2023-05-15T09:39:23;20.70;99.90
25568;DHT22;13455;51.480;7.594;2023-05-15T09:41:49;20.90;99.90
25568;DHT22;13455;51.480;7.594;2023-05-15T09:44:25;20.90;99.90
25568;DHT22;13455;51.480;7.594;2023-05-15T09:46:51;21.10;99.90
25568;DHT22;13455;51.480;7.594;2023-05-15T09:49:18;21.30;99.90
25568;DHT22;13455;51.480;7.594;2023-05-15T09:51:44;21.40;99.90
25568;DHT22;13455;51.480;7.594;2023-05-15T09:54:17;21.80;99.90
25568;DHT22;13455;51.480;7.594;2023-05-15T09:56:46;21.70;99.90
25568;DHT22;13455;51.480;7.594;2023-05-15T09:59:17;21.90;99.90
25568;DHT22;13455;51.480;7.594;2023-05-15T10:01:49;21.90;99.90
25568;DHT22;13455;51.480;7.594;2023-05-15T10:06:46;22.30;99.90
25568;DHT22;13455;51.480;7.594;2023-05-15T10:14:10;22.90;99.90
25568;DHT22;13455;51.480;7.594;2023-05-15T10:16:38;22.90;99.90
25568;DHT22;13455;51.480;7.594;2023-05-15T10:21:36;23.50;99.90
25568;DHT22;13455;51.480;7.594;2023-05-15T10:26:39;23.60;99.90
25568;DHT22;13455;51.480;7.594;2023-05-15T10:29:11;23.60;99.90
25568;DHT22;13455;51.480;7.594;2023-05-15T10:31:38;23.60;99.90
25568;DHT22;13455;51.480;7.594;2023-05-15T10:34:04;23.80;99.90
25568;DHT22;13455;51.480;7.594;2023-05-15T10:36:31;23.80;99.90
25568;DHT22;13455;51.480;7.594;2023-05-15T10:38:59;24.10;99.90
25568;DHT22;13455;51.480;7.594;2023-05-15T10:41:27;24.20;99.90
25568;DHT22;13455;51.480;7.594;2023-05-15T10:43:57;24.10;99.90
25568;DHT22;13455;51.480;7.594;2023-05-15T10:46:24;24.30;99.90
25568;DHT22;13455;51.480;7.594;2023-05-15T10:48:50;24.40;99.90
25568;DHT22;13455;51.480;7.594;2023-05-15T10:51:22;24.50;99.90
25568;DHT22;13455;51.480;7.594;2023-05-15T10:53:48;24.50;99.90
25568;DHT22;13455;51.480;7.594;2023-05-15T10:56:16;24.60;99.90
25568;DHT22;13455;51.480;7.594;2023-05-15T11:01:31;25.10;99.90
25568;DHT22;13455;51.480;7.594;2023-05-15T11:04:11;25.10;97.40
25568;DHT22;13455;51.480;7.594;2023-05-15T11:06:41;25.10;97.10
25568;DHT22;13455;51.480;7.594;2023-05-15T11:11:59;25.40;97.10
25568;DHT22;13455;51.480;7.594;2023-05-15T11:14:27;25.60;97.10
25568;DHT22;13455;51.480;7.594;2023-05-15T11:19:32;25.60;95.50
25568;DHT22;13455;51.480;7.594;2023-05-15T11:27:30;25.40;96.80
25568;DHT22;13455;51.480;7.594;2023-05-15T11:41:01;25.50;98.20
25568;DHT22;13455;51.480;7.594;2023-05-15T11:43:28;25.20;96.80
25568;DHT22;13455;51.480;7.594;2023-05-15T11:48:32;25.00;97.60
25568;DHT22;13455;51.480;7.594;2023-05-15T11:53:28;24.90;92.60
25568;DHT22;13455;51.480;7.594;2023-05-15T11:55:54;24.90;93.80
25568;DHT22;13455;51.480;7.594;2023-05-15T11:58:21;24.80;96.60
25568;DHT22;13455;51.480;7.594;2023-05-15T12:00:49;25.00;97.30
25568;DHT22;13455;51.480;7.594;2023-05-15T12:03:34;24.90;95.60
25568;DHT22;13455;51.480;7.594;2023-05-15T12:08:32;25.50;89.80
25568;DHT22;13455;51.480;7.594;2023-05-15T12:10:59;25.40;90.90
25568;DHT22;13455;51.480;7.594;2023-05-15T12:15:51;25.60;88.80
25568;DHT22;13455;51.480;7.594;2023-05-15T12:18:16;25.80;90.80
25568;DHT22;13455;51.480;7.594;2023-05-15T12:20:42;26.50;90.20
25568;DHT22;13455;51.480;7.594;2023-05-15T12:23:14;26.50;90.30
25568;DHT22;13455;51.480;7.594;2023-05-15T12:25:40;26.80;98.10
25568;DHT22;13455;51.480;7.594;2023-05-15T12:28:07;26.70;85.10
25568;DHT22;13455;51.480;7.594;2023-05-15T12:33:05;27.20;98.80
25568;DHT22;13455;51.480;7.594;2023-05-15T12:35:52;26.30;99.90
25568;DHT22;13455;51.480;7.594;2023-05-15T12:48:14;26.30;99.90
25568;DHT22;13455;51.480;7.594;2023-05-15T12:50:43;26.40;92.30
25568;DHT22;13455;51.480;7.594;2023-05-15T12:55:38;26.70;75.90
25568;DHT22;13455;51.480;7.594;2023-05-15T13:00:33;26.70;99.90
25568;DHT22;13455;51.480;7.594;2023-05-15T13:03:00;26.90;88.20
25568;DHT22;13455;51.480;7.594;2023-05-15T13:10:22;27.00;68.80
25568;DHT22;13455;51.480;7.594;2023-05-15T13:35:06;28.50;64.10
25568;DHT22;13455;51.480;7.594;2023-05-15T13:37:31;28.70;60.70
25568;DHT22;13455;51.480;7.594;2023-05-15T13:42:23;28.60;91.30
25568;DHT22;13455;51.480;7.594;2023-05-15T14:01:51;29.20;52.90
25568;DHT22;13455;51.480;7.594;2023-05-15T14:04:17;29.20;53.50
25568;DHT22;13455;51.480;7.594;2023-05-15T14:06:43;29.40;54.30
25568;DHT22;13455;51.480;7.594;2023-05-15T14:28:36;27.90;51.30
25568;DHT22;13455;51.480;7.594;2023-05-15T14:31:02;27.70;51.30
25568;DHT22;13455;51.480;7.594;2023-05-15T14:33:28;27.40;51.60
25568;DHT22;13455;51.480;7.594;2023-05-15T14:35:53;27.20;52.70
25568;DHT22;13455;51.480;7.594;2023-05-15T14:48:03;27.70;54.20
25568;DHT22;13455;51.480;7.594;2023-05-15T14:50:28;27.60;54.60
25568;DHT22;13455;51.480;7.594;2023-05-15T14:52:54;27.50;54.50
25568;DHT22;13455;51.480;7.594;2023-05-15T14:55:20;27.40;55.50
25568;DHT22;13455;51.480;7.594;2023-05-15T14:57:48;27.70;54.60
25568;DHT22;13455;51.480;7.594;2023-05-15T15:15:13;27.50;92.30
25568;DHT22;13455;51.480;7.594;2023-05-15T15:29:49;24.80;61.80
25568;DHT22;13455;51.480;7.594;2023-05-15T15:44:36;24.70;62.10
25568;DHT22;13455;51.480;7.594;2023-05-15T15:47:02;24.70;63.30
25568;DHT22;13455;51.480;7.594;2023-05-15T15:49:28;24.60;63.10
25568;DHT22;13455;51.480;7.594;2023-05-15T15:51:53;24.40;65.90
25568;DHT22;13455;51.480;7.594;2023-05-15T15:54:19;24.10;64.30
25568;DHT22;13455;51.480;7.594;2023-05-15T15:59:12;24.20;65.80
25568;DHT22;13455;51.480;7.594;2023-05-15T16:01:47;24.30;65.50
25568;DHT22;13455;51.480;7.594;2023-05-15T16:04:13;24.30;95.90
25568;DHT22;13455;51.480;7.594;2023-05-15T16:06:38;24.40;62.70
25568;DHT22;13455;51.480;7.594;2023-05-15T16:09:05;24.30;62.60
25568;DHT22;13455;51.480;7.594;2023-05-15T16:11:31;24.20;64.30
25568;DHT22;13455;51.480;7.594;2023-05-15T16:13:56;24.10;66.00
25568;DHT22;13455;51.480;7.594;2023-05-15T16:16:22;24.10;67.40
25568;DHT22;13455;51.480;7.594;2023-05-15T16:21:13;24.00;67.20
25568;DHT22;13455;51.480;7.594;2023-05-15T16:23:39;23.80;69.00
25568;DHT22;13455;51.480;7.594;2023-05-15T16:26:08;23.80;69.90
25568;DHT22;13455;51.480;7.594;2023-05-15T16:28:35;23.60;70.10
25568;DHT22;13455;51.480;7.594;2023-05-15T16:33:28;23.40;70.30
25568;DHT22;13455;51.480;7.594;2023-05-15T16:35:53;23.20;71.90
25568;DHT22;13455;51.480;7.594;2023-05-15T16:38:19;23.00;99.90
25568;DHT22;13455;51.480;7.594;2023-05-15T16:43:12;22.50;75.00
25568;DHT22;13455;51.480;7.594;2023-05-15T16:45:38;22.40;75.10
25568;DHT22;13455;51.480;7.594;2023-05-15T16:50:30;22.00;99.90
25568;DHT22;13455;51.480;7.594;2023-05-15T17:00:15;21.70;77.90
25568;DHT22;13455;51.480;7.594;2023-05-15T17:02:41;21.70;78.80
25568;DHT22;13455;51.480;7.594;2023-05-15T17:05:08;21.70;79.30
25568;DHT22;13455;51.480;7.594;2023-05-15T17:10:01;21.40;79.30
25568;DHT22;13455;51.480;7.594;2023-05-15T17:17:19;21.20;82.80
25568;DHT22;13455;51.480;7.594;2023-05-15T17:19:45;20.70;85.20
25568;DHT22;13455;51.480;7.594;2023-05-15T17:22:10;20.80;86.80
25568;DHT22;13455;51.480;7.594;2023-05-15T17:27:02;20.70;87.70
25568;DHT22;13455;51.480;7.594;2023-05-15T17:29:28;20.70;88.80
25568;DHT22;13455;51.480;7.594;2023-05-15T17:34:19;20.50;88.90
25568;DHT22;13455;51.480;7.594;2023-05-15T17:36:45;20.50;93.50
25568;DHT22;13455;51.480;7.594;2023-05-15T17:39:10;20.50;91.60
25568;DHT22;13455;51.480;7.594;2023-05-15T17:41:36;20.20;90.50
25568;DHT22;13455;51.480;7.594;2023-05-15T17:44:02;20.00;92.20
25568;DHT22;13455;51.480;7.594;2023-05-15T17:46:28;20.10;91.10
25568;DHT22;13455;51.480;7.594;2023-05-15T17:48:54;20.00;90.90
25568;DHT22;13455;51.480;7.594;2023-05-15T17:51:20;20.00;91.30
25568;DHT22;13455;51.480;7.594;2023-05-15T17:53:46;21.10;92.60
25568;DHT22;13455;51.480;7.594;2023-05-15T17:56:12;19.70;93.30
25568;DHT22;13455;51.480;7.594;2023-05-15T17:58:38;19.90;92.90
25568;DHT22;13455;51.480;7.594;2023-05-15T18:03:30;20.20;99.90
25568;DHT22;13455;51.480;7.594;2023-05-15T18:05:58;20.00;99.90
25568;DHT22;13455;51.480;7.594;2023-05-15T18:08:24;19.50;93.20
25568;DHT22;13455;51.480;7.594;2023-05-15T18:10:49;19.40;95.10
25568;DHT22;13455;51.480;7.594;2023-05-15T18:13:15;19.30;94.70
25568;DHT22;13455;51.480;7.594;2023-05-15T18:15:41;19.10;94.80
25568;DHT22;13455;51.480;7.594;2023-05-15T18:18:06;19.10;94.70
25568;DHT22;13455;51.480;7.594;2023-05-15T18:20:32;19.20;99.90
25568;DHT22;13455;51.480;7.594;2023-05-15T18:22:58;18.80;95.30
25568;DHT22;13455;51.480;7.594;2023-05-15T18:25:23;18.80;96.00
25568;DHT22;13455;51.480;7.594;2023-05-15T18:27:49;18.90;99.90
25568;DHT22;13455;51.480;7.594;2023-05-15T18:32:41;18.40;96.40
25568;DHT22;13455;51.480;7.594;2023-05-15T18:35:06;18.40;96.70
25568;DHT22;13455;51.480;7.594;2023-05-15T18:39:58;18.10;99.90
25568;DHT22;13455;51.480;7.594;2023-05-15T18:44:50;17.50;99.90
25568;DHT22;13455;51.480;7.594;2023-05-15T18:47:17;17.80;98.10
25568;DHT22;13455;51.480;7.594;2023-05-15T18:52:09;17.70;98.30
25568;DHT22;13455;51.480;7.594;2023-05-15T18:54:37;17.50;99.10
25568;DHT22;13455;51.480;7.594;2023-05-15T18:57:03;17.50;99.90
25568;DHT22;13455;51.480;7.594;2023-05-15T18:59:28;17.60;99.90
25568;DHT22;13455;51.480;7.594;2023-05-15T19:01:54;17.60;99.90
25568;DHT22;13455;51.480;7.594;2023-05-15T19:04:20;17.30;99.90
25568;DHT22;13455;51.480;7.594;2023-05-15T19:06:46;17.20;99.90
25568;DHT22;13455;51.480;7.594;2023-05-15T19:09:15;17.10;99.90
25568;DHT22;13455;51.480;7.594;2023-05-15T19:11:44;17.10;99.90
25568;DHT22;13455;51.480;7.594;2023-05-15T19:14:11;17.00;99.90
25568;DHT22;13455;51.480;7.594;2023-05-15T19:16:40;16.40;99.90
25568;DHT22;13455;51.480;7.594;2023-05-15T19:19:06;17.00;99.90
25568;DHT22;13455;51.480;7.594;2023-05-15T19:23:57;16.80;99.90
25568;DHT22;13455;51.480;7.594;2023-05-15T19:31:17;16.50;99.90
25568;DHT22;13455;51.480;7.594;2023-05-15T19:36:08;16.40;99.90
25568;DHT22;13455;51.480;7.594;2023-05-15T19:38:34;16.40;99.90
25568;DHT22;13455;51.480;7.594;2023-05-15T19:41:00;16.30;99.90
25568;DHT22;13455;51.480;7.594;2023-05-15T19:43:25;16.30;99.90
25568;DHT22;13455;51.480;7.594;2023-05-15T19:45:51;16.30;99.90
25568;DHT22;13455;51.480;7.594;2023-05-15T19:48:17;16.20;99.90
25568;DHT22;13455;51.480;7.594;2023-05-15T19:50:44;16.20;99.90
25568;DHT22;13455;51.480;7.594;2023-05-15T19:53:09;16.20;99.90
25568;DHT22;13455;51.480;7.594;2023-05-15T19:58:03;16.00;99.90
25568;DHT22;13455;51.480;7.594;2023-05-15T20:02:55;16.10;99.90
25568;DHT22;13455;51.480;7.594;2023-05-15T20:07:47;15.90;99.90
25568;DHT22;13455;51.480;7.594;2023-05-15T20:10:12;16.40;99.90
25568;DHT22;13455;51.480;7.594;2023-05-15T20:12:43;15.90;99.90
25568;DHT22;13455;51.480;7.594;2023-05-15T20:15:09;15.90;99.90
25568;DHT22;13455;51.480;7.594;2023-05-15T20:17:34;15.90;99.90
25568;DHT22;13455;51.480;7.594;2023-05-15T20:20:00;15.90;99.90
25568;DHT22;13455;51.480;7.594;2023-05-15T20:24:52;16.10;99.90
25568;DHT22;13455;51.480;7.594;2023-05-15T20:27:18;15.90;99.90
25568;DHT22;13455;51.480;7.594;2023-05-15T20:39:30;15.70;99.90
25568;DHT22;13455;51.480;7.594;2023-05-15T20:41:56;15.70;99.90
25568;DHT22;13455;51.480;7.594;2023-05-15T20:44:22;15.50;99.90
25568;DHT22;13455;51.480;7.594;2023-05-15T20:46:47;15.50;99.90
25568;DHT22;13455;51.480;7.594;2023-05-15T20:51:39;15.50;99.90
25568;DHT22;13455;51.480;7.594;2023-05-15T20:54:07;15.10;99.90
25568;DHT22;13455;51.480;7.594;2023-05-15T20:56:33;15.10;99.90
25568;DHT22;13455;51.480;7.594;2023-05-15T21:01:25;15.10;99.90